sensor_id;sensor_type;location;lat;lon;timestamp;temperature;humidity
40816;DHT22;26535;48.788;9.214;2023-05-07T05:03:07;13.30;99.90
40816;DHT22;26535;48.788;9.214;2023-05-07T05:05:33;13.30;99.90
40816;DHT22;26535;48.788;9.214;2023-05-07T05:08:00;13.30;99.90
40816;DHT22;26535;48.788;9.214;2023-05-07T05:10:26;13.40;99.90
40816;DHT22;26535;48.788;9.214;2023-05-07T05:12:52;13.40;99.90
40816;DHT22;26535;48.788;9.214;2023-05-07T05:15:19;13.50;99.90
40816;DHT22;26535;48.788;9.214;2023-05-07T05:17:45;13.50;99.90
40816;DHT22;26535;48.788;9.214;2023-05-07T05:20:11;13.50;99.90
40816;DHT22;26535;48.788;9.214;2023-05-07T05:22:39;13.60;99.90
40816;DHT22;26535;48.788;9.214;2023-05-07T05:25:05;13.70;99.90
40816;DHT22;26535;48.788;9.214;2023-05-07T05:27:31;13.80;99.90
40816;DHT22;26535;48.788;9.214;2023-05-07T05:29:57;13.80;99.90
40816;DHT22;26535;48.788;9.214;2023-05-07T05:32:23;13.90;99.90
40816;DHT22;26535;48.788;9.214;2023-05-07T05:34:52;14.00;99.90
40816;DHT22;26535;48.788;9.214;2023-05-07T05:37:18;14.00;99.90
40816;DHT22;26535;48.788;9.214;2023-05-07T05:39:44;14.20;99.90
40816;DHT22;26535;48.788;9.214;2023-05-07T05:42:10;14.30;99.90
40816;DHT22;26535;48.788;9.214;2023-05-07T05:44:36;14.40;99.90
40816;DHT22;26535;48.788;9.214;2023-05-07T05:47:03;14.50;99.90
40816;DHT22;26535;48.788;9.214;2023-05-07T05:49:29;14.60;99.90
40816;DHT22;26535;48.788;9.214;2023-05-07T05:51:55;14.70;99.90
40816;DHT22;26535;48.788;9.214;2023-05-07T05:54:23;14.70;99.90
40816;DHT22;26535;48.788;9.214;2023-05-07T05:56:49;14.80;99.90
40816;DHT22;26535;48.788;9.214;2023-05-07T05:59:15;14.90;99.90
40816;DHT22;26535;48.788;9.214;2023-05-07T06:01:41;14.90;99.90
40816;DHT22;26535;48.788;9.214;2023-05-07T06:04:07;15.00;99.90
40816;DHT22;26535;48.788;9.214;2023-05-07T06:06:33;15.00;99.90
40816;DHT22;26535;48.788;9.214;2023-05-07T06:09:00;15.10;99.90
40816;DHT22;26535;48.788;9.214;2023-05-07T06:11:33;15.30;99.90
40816;DHT22;26535;48.788;9.214;2023-05-07T06:13:59;15.40;99.90
40816;DHT22;26535;48.788;9.214;2023-05-07T06:16:26;15.60;99.90
40816;DHT22;26535;48.788;9.214;2023-05-07T06:18:52;15.70;99.90
40816;DHT22;26535;48.788;9.214;2023-05-07T06:21:18;15.80;99.90
40816;DHT22;26535;48.788;9.214;2023-05-07T06:23:44;15.90;99.90
40816;DHT22;26535;48.788;9.214;2023-05-07T06:26:10;15.80;99.90
40816;DHT22;26535;48.788;9.214;2023-05-07T06:28:40;15.80;99.90
40816;DHT22;26535;48.788;9.214;2023-05-07T06:31:17;15.80;99.90
40816;DHT22;26535;48.788;9.214;2023-05-07T06:34:04;15.80;99.90
40816;DHT22;26535;48.788;9.214;2023-05-07T06:36:35;15.80;99.90
40816;DHT22;26535;48.788;9.214;2023-05-07T06:39:06;15.70;99.90
40816;DHT22;26535;48.788;9.214;2023-05-07T06:41:32;15.60;99.90
40816;DHT22;26535;48.788;9.214;2023-05-07T06:44:05;15.70;99.90
40816;DHT22;26535;48.788;9.214;2023-05-07T06:46:37;15.80;99.90
40816;DHT22;26535;48.788;9.214;2023-05-07T06:49:04;15.80;99.90
40816;DHT22;26535;48.788;9.214;2023-05-07T06:51:30;15.90;99.90
40816;DHT22;26535;48.788;9.214;2023-05-07T06:54:00;16.00;99.90
40816;DHT22;26535;48.788;9.214;2023-05-07T06:56:26;16.20;99.90
40816;DHT22;26535;48.788;9.214;2023-05-07T06:58:51;16.40;99.90
40816;DHT22;26535;48.788;9.214;2023-05-07T07:01:18;16.60;99.90
40816;DHT22;26535;48.788;9.214;2023-05-07T07:03:44;16.80;99.90
40816;DHT22;26535;48.788;9.214;2023-05-07T07:06:09;17.10;99.90
40816;DHT22;26535;48.788;9.214;2023-05-07T07:08:36;17.30;99.90
40816;DHT22;26535;48.788;9.214;2023-05-07T07:11:05;17.40;99.90
40816;DHT22;26535;48.788;9.214;2023-05-07T07:13:31;17.70;99.90
40816;DHT22;26535;48.788;9.214;2023-05-07T07:15:57;17.90;99.90
40816;DHT22;26535;48.788;9.214;2023-05-07T07:18:23;18.10;99.90
40816;DHT22;26535;48.788;9.214;2023-05-07T07:20:50;18.30;99.90
40816;DHT22;26535;48.788;9.214;2023-05-07T07:23:15;18.50;99.90
40816;DHT22;26535;48.788;9.214;2023-05-07T07:25:41;18.70;99.90
40816;DHT22;26535;48.788;9.214;2023-05-07T07:28:07;18.90;99.90
40816;DHT22;26535;48.788;9.214;2023-05-07T07:30:33;19.10;99.90
40816;DHT22;26535;48.788;9.214;2023-05-07T07:32:59;19.40;99.50
40816;DHT22;26535;48.788;9.214;2023-05-07T07:35:32;19.70;98.60
40816;DHT22;26535;48.788;9.214;2023-05-07T07:37:58;19.80;97.60
40816;DHT22;26535;48.788;9.214;2023-05-07T07:40:24;20.10;96.50
40816;DHT22;26535;48.788;9.214;2023-05-07T07:42:51;20.20;96.50
40816;DHT22;26535;48.788;9.214;2023-05-07T07:45:17;20.60;95.80
40816;DHT22;26535;48.788;9.214;2023-05-07T07:47:46;20.70;95.00
40816;DHT22;26535;48.788;9.214;2023-05-07T07:50:12;21.00;94.60
40816;DHT22;26535;48.788;9.214;2023-05-07T07:52:38;21.50;93.80
40816;DHT22;26535;48.788;9.214;2023-05-07T07:55:06;21.90;93.10
40816;DHT22;26535;48.788;9.214;2023-05-07T07:57:33;22.00;92.40
40816;DHT22;26535;48.788;9.214;2023-05-07T07:59:59;22.30;92.20
40816;DHT22;26535;48.788;9.214;2023-05-07T08:02:25;22.30;91.70
40816;DHT22;26535;48.788;9.214;2023-05-07T08:04:51;22.30;91.50
40816;DHT22;26535;48.788;9.214;2023-05-07T08:07:17;22.50;90.80
40816;DHT22;26535;48.788;9.214;2023-05-07T08:09:47;22.40;90.70
40816;DHT22;26535;48.788;9.214;2023-05-07T08:12:14;22.50;90.70
40816;DHT22;26535;48.788;9.214;2023-05-07T08:14:40;22.50;90.70
40816;DHT22;26535;48.788;9.214;2023-05-07T08:17:07;22.60;90.20
40816;DHT22;26535;48.788;9.214;2023-05-07T08:19:35;22.50;90.30
40816;DHT22;26535;48.788;9.214;2023-05-07T08:22:03;22.60;90.40
40816;DHT22;26535;48.788;9.214;2023-05-07T08:24:29;22.40;90.00
40816;DHT22;26535;48.788;9.214;2023-05-07T08:26:57;22.30;90.10
40816;DHT22;26535;48.788;9.214;2023-05-07T08:29:23;22.30;90.00
40816;DHT22;26535;48.788;9.214;2023-05-07T08:31:49;22.30;90.00
40816;DHT22;26535;48.788;9.214;2023-05-07T08:34:15;22.50;90.20
40816;DHT22;26535;48.788;9.214;2023-05-07T08:36:43;22.70;90.00
40816;DHT22;26535;48.788;9.214;2023-05-07T08:39:12;22.70;89.40
40816;DHT22;26535;48.788;9.214;2023-05-07T08:41:38;22.60;89.50
40816;DHT22;26535;48.788;9.214;2023-05-07T08:44:06;22.40;90.10
40816;DHT22;26535;48.788;9.214;2023-05-07T08:46:36;22.40;90.30
40816;DHT22;26535;48.788;9.214;2023-05-07T08:49:02;22.20;90.40
40816;DHT22;26535;48.788;9.214;2023-05-07T08:51:28;22.20;90.60
40816;DHT22;26535;48.788;9.214;2023-05-07T08:53:54;22.20;90.80
40816;DHT22;26535;48.788;9.214;2023-05-07T08:56:28;22.40;90.50
40816;DHT22;26535;48.788;9.214;2023-05-07T08:58:54;22.50;90.50
40816;DHT22;26535;48.788;9.214;2023-05-07T09:01:26;22.70;90.20
40816;DHT22;26535;48.788;9.214;2023-05-07T09:03:53;22.90;89.70
40816;DHT22;26535;48.788;9.214;2023-05-07T09:06:19;23.10;89.80
40816;DHT22;26535;48.788;9.214;2023-05-07T09:08:53;23.10;89.10
40816;DHT22;26535;48.788;9.214;2023-05-07T09:11:21;23.30;89.20
40816;DHT22;26535;48.788;9.214;2023-05-07T09:13:49;23.40;88.90
40816;DHT22;26535;48.788;9.214;2023-05-07T09:16:20;23.50;88.30
40816;DHT22;26535;48.788;9.214;2023-05-07T09:18:48;23.60;87.50
40816;DHT22;26535;48.788;9.214;2023-05-07T09:21:17;23.70;87.60
40816;DHT22;26535;48.788;9.214;2023-05-07T09:23:44;23.70;87.60
40816;DHT22;26535;48.788;9.214;2023-05-07T09:26:10;23.70;87.00
40816;DHT22;26535;48.788;9.214;2023-05-07T09:28:41;23.80;86.50
40816;DHT22;26535;48.788;9.214;2023-05-07T09:31:09;23.80;86.00
40816;DHT22;26535;48.788;9.214;2023-05-07T09:33:35;23.80;86.20
40816;DHT22;26535;48.788;9.214;2023-05-07T09:36:07;24.00;86.20
40816;DHT22;26535;48.788;9.214;2023-05-07T09:38:36;23.90;84.70
40816;DHT22;26535;48.788;9.214;2023-05-07T09:43:35;23.90;85.30
40816;DHT22;26535;48.788;9.214;2023-05-07T09:46:15;23.90;84.40
40816;DHT22;26535;48.788;9.214;2023-05-07T09:48:48;23.80;84.30
40816;DHT22;26535;48.788;9.214;2023-05-07T09:54:03;24.00;85.00
40816;DHT22;26535;48.788;9.214;2023-05-07T09:56:33;24.20;84.80
40816;DHT22;26535;48.788;9.214;2023-05-07T09:59:00;24.40;84.10
40816;DHT22;26535;48.788;9.214;2023-05-07T10:01:30;24.60;84.50
40816;DHT22;26535;48.788;9.214;2023-05-07T10:03:57;24.80;82.60
40816;DHT22;26535;48.788;9.214;2023-05-07T10:06:25;25.00;82.10
40816;DHT22;26535;48.788;9.214;2023-05-07T10:08:54;25.30;82.00
40816;DHT22;26535;48.788;9.214;2023-05-07T10:11:22;25.40;81.30
40816;DHT22;26535;48.788;9.214;2023-05-07T10:13:48;25.60;80.40
40816;DHT22;26535;48.788;9.214;2023-05-07T10:16:14;25.70;80.00
40816;DHT22;26535;48.788;9.214;2023-05-07T10:18:45;25.80;79.20
40816;DHT22;26535;48.788;9.214;2023-05-07T10:21:18;26.00;78.50
40816;DHT22;26535;48.788;9.214;2023-05-07T10:23:45;26.30;79.00
40816;DHT22;26535;48.788;9.214;2023-05-07T10:26:15;26.40;77.50
40816;DHT22;26535;48.788;9.214;2023-05-07T10:28:45;26.30;76.90
40816;DHT22;26535;48.788;9.214;2023-05-07T10:33:47;26.80;76.20
40816;DHT22;26535;48.788;9.214;2023-05-07T10:36:15;27.00;75.30
40816;DHT22;26535;48.788;9.214;2023-05-07T10:38:40;27.00;74.60
40816;DHT22;26535;48.788;9.214;2023-05-07T10:41:07;27.20;73.60
40816;DHT22;26535;48.788;9.214;2023-05-07T10:43:44;27.50;73.00
40816;DHT22;26535;48.788;9.214;2023-05-07T10:46:19;28.00;72.20
40816;DHT22;26535;48.788;9.214;2023-05-07T10:51:29;28.70;70.00
40816;DHT22;26535;48.788;9.214;2023-05-07T10:54:20;28.40;69.90
40816;DHT22;26535;48.788;9.214;2023-05-07T10:56:55;28.30;69.90
40816;DHT22;26535;48.788;9.214;2023-05-07T10:59:33;28.00;68.60
40816;DHT22;26535;48.788;9.214;2023-05-07T11:02:10;27.80;68.60
40816;DHT22;26535;48.788;9.214;2023-05-07T11:05:18;27.50;68.20
40816;DHT22;26535;48.788;9.214;2023-05-07T11:07:56;27.30;70.10
40816;DHT22;26535;48.788;9.214;2023-05-07T11:16:19;29.30;67.30
40816;DHT22;26535;48.788;9.214;2023-05-07T11:18:55;29.90;66.40
40816;DHT22;26535;48.788;9.214;2023-05-07T11:21:38;30.40;64.30
40816;DHT22;26535;48.788;9.214;2023-05-07T11:24:27;30.90;62.90
40816;DHT22;26535;48.788;9.214;2023-05-07T11:26:59;30.90;63.80
40816;DHT22;26535;48.788;9.214;2023-05-07T11:29:26;30.60;65.20
40816;DHT22;26535;48.788;9.214;2023-05-07T11:31:58;30.30;66.20
40816;DHT22;26535;48.788;9.214;2023-05-07T11:34:30;29.90;66.50
40816;DHT22;26535;48.788;9.214;2023-05-07T11:36:58;29.40;67.20
40816;DHT22;26535;48.788;9.214;2023-05-07T11:39:37;28.90;67.70
40816;DHT22;26535;48.788;9.214;2023-05-07T11:42:02;28.50;68.70
40816;DHT22;26535;48.788;9.214;2023-05-07T11:44:42;28.20;69.10
40816;DHT22;26535;48.788;9.214;2023-05-07T11:47:09;27.70;70.10
40816;DHT22;26535;48.788;9.214;2023-05-07T11:49:35;27.40;70.30
40816;DHT22;26535;48.788;9.214;2023-05-07T11:52:01;27.20;71.20
40816;DHT22;26535;48.788;9.214;2023-05-07T11:54:35;26.90;70.50
40816;DHT22;26535;48.788;9.214;2023-05-07T11:57:01;26.40;71.40
40816;DHT22;26535;48.788;9.214;2023-05-07T11:59:26;26.10;71.60
40816;DHT22;26535;48.788;9.214;2023-05-07T12:01:52;25.70;72.40
40816;DHT22;26535;48.788;9.214;2023-05-07T12:04:21;25.50;72.80
40816;DHT22;26535;48.788;9.214;2023-05-07T12:06:47;25.10;73.50
40816;DHT22;26535;48.788;9.214;2023-05-07T12:09:13;24.90;74.00
40816;DHT22;26535;48.788;9.214;2023-05-07T12:11:39;24.70;75.40
40816;DHT22;26535;48.788;9.214;2023-05-07T12:14:05;24.50;76.40
40816;DHT22;26535;48.788;9.214;2023-05-07T12:16:31;24.30;77.00
40816;DHT22;26535;48.788;9.214;2023-05-07T12:18:57;24.10;78.90
40816;DHT22;26535;48.788;9.214;2023-05-07T12:21:24;23.90;80.50
40816;DHT22;26535;48.788;9.214;2023-05-07T12:23:50;23.80;82.20
40816;DHT22;26535;48.788;9.214;2023-05-07T12:26:16;23.50;83.20
40816;DHT22;26535;48.788;9.214;2023-05-07T12:28:42;23.30;87.40
40816;DHT22;26535;48.788;9.214;2023-05-07T12:31:08;22.90;90.30
40816;DHT22;26535;48.788;9.214;2023-05-07T12:33:35;22.60;92.90
40816;DHT22;26535;48.788;9.214;2023-05-07T12:36:04;22.20;93.00
40816;DHT22;26535;48.788;9.214;2023-05-07T12:38:35;21.70;95.30
40816;DHT22;26535;48.788;9.214;2023-05-07T12:41:02;20.80;99.00
40816;DHT22;26535;48.788;9.214;2023-05-07T12:43:28;19.60;99.90
40816;DHT22;26535;48.788;9.214;2023-05-07T12:45:56;19.00;99.90
40816;DHT22;26535;48.788;9.214;2023-05-07T12:48:23;18.60;99.90
40816;DHT22;26535;48.788;9.214;2023-05-07T12:50:53;18.30;99.90
40816;DHT22;26535;48.788;9.214;2023-05-07T12:53:24;17.50;99.90
40816;DHT22;26535;48.788;9.214;2023-05-07T12:55:52;17.00;99.90
40816;DHT22;26535;48.788;9.214;2023-05-07T12:58:27;16.20;99.90
40816;DHT22;26535;48.788;9.214;2023-05-07T13:00:53;15.70;99.90
40816;DHT22;26535;48.788;9.214;2023-05-07T13:03:24;15.50;99.90
40816;DHT22;26535;48.788;9.214;2023-05-07T13:05:51;15.00;99.90
40816;DHT22;26535;48.788;9.214;2023-05-07T13:08:33;14.70;99.90
40816;DHT22;26535;48.788;9.214;2023-05-07T13:11:01;14.70;99.90
40816;DHT22;26535;48.788;9.214;2023-05-07T13:13:34;14.40;99.90
40816;DHT22;26535;48.788;9.214;2023-05-07T13:16:01;14.30;99.90
40816;DHT22;26535;48.788;9.214;2023-05-07T13:18:29;14.30;99.90
40816;DHT22;26535;48.788;9.214;2023-05-07T13:20:55;14.30;99.90
40816;DHT22;26535;48.788;9.214;2023-05-07T13:23:21;14.20;99.90
40816;DHT22;26535;48.788;9.214;2023-05-07T13:25:48;14.10;99.90
40816;DHT22;26535;48.788;9.214;2023-05-07T13:28:16;14.10;99.90
40816;DHT22;26535;48.788;9.214;2023-05-07T13:30:42;14.00;99.90
40816;DHT22;26535;48.788;9.214;2023-05-07T13:33:08;14.00;99.90
40816;DHT22;26535;48.788;9.214;2023-05-07T13:35:34;14.10;99.90
40816;DHT22;26535;48.788;9.214;2023-05-07T13:37:59;14.20;99.90
40816;DHT22;26535;48.788;9.214;2023-05-07T13:40:25;14.30;99.90
40816;DHT22;26535;48.788;9.214;2023-05-07T13:42:51;14.50;99.90
40816;DHT22;26535;48.788;9.214;2023-05-07T13:45:20;14.60;99.90
40816;DHT22;26535;48.788;9.214;2023-05-07T13:47:46;14.70;99.90
40816;DHT22;26535;48.788;9.214;2023-05-07T13:50:12;14.60;99.90
40816;DHT22;26535;48.788;9.214;2023-05-07T13:52:44;14.50;99.90
40816;DHT22;26535;48.788;9.214;2023-05-07T13:55:22;14.40;99.90
40816;DHT22;26535;48.788;9.214;2023-05-07T13:57:57;14.30;99.90
40816;DHT22;26535;48.788;9.214;2023-05-07T14:00:24;14.40;99.90
40816;DHT22;26535;48.788;9.214;2023-05-07T14:02:50;14.70;99.90
40816;DHT22;26535;48.788;9.214;2023-05-07T14:05:16;14.70;99.90
40816;DHT22;26535;48.788;9.214;2023-05-07T14:07:42;14.70;99.90
40816;DHT22;26535;48.788;9.214;2023-05-07T14:10:08;14.80;99.90
40816;DHT22;26535;48.788;9.214;2023-05-07T14:12:34;14.70;99.90
40816;DHT22;26535;48.788;9.214;2023-05-07T14:15:00;14.60;99.90
40816;DHT22;26535;48.788;9.214;2023-05-07T14:17:26;14.70;99.90
40816;DHT22;26535;48.788;9.214;2023-05-07T14:19:53;14.60;99.90
40816;DHT22;26535;48.788;9.214;2023-05-07T14:22:20;14.70;99.90
40816;DHT22;26535;48.788;9.214;2023-05-07T14:24:47;14.70;99.90
40816;DHT22;26535;48.788;9.214;2023-05-07T14:27:12;14.80;99.90
40816;DHT22;26535;48.788;9.214;2023-05-07T14:29:38;14.70;99.90
40816;DHT22;26535;48.788;9.214;2023-05-07T14:32:04;14.70;99.90
40816;DHT22;26535;48.788;9.214;2023-05-07T14:34:31;14.70;99.90
40816;DHT22;26535;48.788;9.214;2023-05-07T14:36:57;14.70;99.90
40816;DHT22;26535;48.788;9.214;2023-05-07T14:39:23;14.70;99.90
40816;DHT22;26535;48.788;9.214;2023-05-07T14:41:49;14.60;99.90
40816;DHT22;26535;48.788;9.214;2023-05-07T14:44:15;14.80;99.90
40816;DHT22;26535;48.788;9.214;2023-05-07T14:46:40;14.80;99.90
40816;DHT22;26535;48.788;9.214;2023-05-07T14:49:06;14.90;99.90
40816;DHT22;26535;48.788;9.214;2023-05-07T14:51:32;15.10;99.90
40816;DHT22;26535;48.788;9.214;2023-05-07T14:53:58;15.30;99.90
40816;DHT22;26535;48.788;9.214;2023-05-07T14:56:24;15.40;99.90
40816;DHT22;26535;48.788;9.214;2023-05-07T14:58:50;15.50;99.90
40816;DHT22;26535;48.788;9.214;2023-05-07T15:01:16;15.60;99.90
40816;DHT22;26535;48.788;9.214;2023-05-07T15:03:41;15.60;99.90
40816;DHT22;26535;48.788;9.214;2023-05-07T15:06:07;15.80;99.90
40816;DHT22;26535;48.788;9.214;2023-05-07T15:08:33;16.00;99.90
40816;DHT22;26535;48.788;9.214;2023-05-07T15:10:58;16.00;99.90
40816;DHT22;26535;48.788;9.214;2023-05-07T15:13:24;16.00;99.90
40816;DHT22;26535;48.788;9.214;2023-05-07T15:15:50;16.00;99.90
40816;DHT22;26535;48.788;9.214;2023-05-07T15:18:16;16.00;99.90
40816;DHT22;26535;48.788;9.214;2023-05-07T15:20:42;16.00;99.90
40816;DHT22;26535;48.788;9.214;2023-05-07T15:23:08;16.20;99.90
40816;DHT22;26535;48.788;9.214;2023-05-07T15:25:41;16.20;99.90
40816;DHT22;26535;48.788;9.214;2023-05-07T15:28:07;16.10;99.90
40816;DHT22;26535;48.788;9.214;2023-05-07T15:30:33;16.10;99.90
40816;DHT22;26535;48.788;9.214;2023-05-07T15:33:00;16.30;99.90
40816;DHT22;26535;48.788;9.214;2023-05-07T15:35:26;16.40;99.90
40816;DHT22;26535;48.788;9.214;2023-05-07T15:37:51;16.50;99.90
40816;DHT22;26535;48.788;9.214;2023-05-07T15:40:21;16.50;99.90
40816;DHT22;26535;48.788;9.214;2023-05-07T15:42:47;16.40;99.90
40816;DHT22;26535;48.788;9.214;2023-05-07T15:45:12;16.50;99.90
40816;DHT22;26535;48.788;9.214;2023-05-07T15:47:38;16.40;99.90
40816;DHT22;26535;48.788;9.214;2023-05-07T15:50:04;16.30;99.90
40816;DHT22;26535;48.788;9.214;2023-05-07T15:52:30;16.30;99.90
40816;DHT22;26535;48.788;9.214;2023-05-07T15:54:56;16.40;99.90
40816;DHT22;26535;48.788;9.214;2023-05-07T15:57:23;16.50;99.90
40816;DHT22;26535;48.788;9.214;2023-05-07T15:59:49;16.60;99.90
40816;DHT22;26535;48.788;9.214;2023-05-07T16:02:15;16.60;99.90
40816;DHT22;26535;48.788;9.214;2023-05-07T16:04:41;16.60;99.90
40816;DHT22;26535;48.788;9.214;2023-05-07T16:07:07;16.60;99.90
40816;DHT22;26535;48.788;9.214;2023-05-07T16:09:33;16.60;99.90
40816;DHT22;26535;48.788;9.214;2023-05-07T16:11:59;16.60;99.90
40816;DHT22;26535;48.788;9.214;2023-05-07T16:14:25;16.60;99.90
40816;DHT22;26535;48.788;9.214;2023-05-07T16:16:51;16.50;99.90
40816;DHT22;26535;48.788;9.214;2023-05-07T16:19:17;16.40;99.90
40816;DHT22;26535;48.788;9.214;2023-05-07T16:21:42;16.40;99.90
40816;DHT22;26535;48.788;9.214;2023-05-07T16:24:08;16.40;99.90
40816;DHT22;26535;48.788;9.214;2023-05-07T16:26:34;16.50;99.90
40816;DHT22;26535;48.788;9.214;2023-05-07T16:29:00;16.40;99.90
40816;DHT22;26535;48.788;9.214;2023-05-07T16:31:26;16.50;99.90
40816;DHT22;26535;48.788;9.214;2023-05-07T16:33:52;16.50;99.90
40816;DHT22;26535;48.788;9.214;2023-05-07T16:36:18;16.60;99.90
40816;DHT22;26535;48.788;9.214;2023-05-07T16:38:44;16.60;99.90
40816;DHT22;26535;48.788;9.214;2023-05-07T16:41:10;16.60;99.90
40816;DHT22;26535;48.788;9.214;2023-05-07T16:43:35;16.70;99.90
40816;DHT22;26535;48.788;9.214;2023-05-07T16:46:01;16.70;99.90
40816;DHT22;26535;48.788;9.214;2023-05-07T16:48:27;16.60;99.90
40816;DHT22;26535;48.788;9.214;2023-05-07T16:50:53;16.70;99.90
40816;DHT22;26535;48.788;9.214;2023-05-07T16:53:18;16.80;99.90
40816;DHT22;26535;48.788;9.214;2023-05-07T16:55:45;16.70;99.90
40816;DHT22;26535;48.788;9.214;2023-05-07T16:58:11;16.70;99.90
40816;DHT22;26535;48.788;9.214;2023-05-07T17:00:37;16.80;99.90
40816;DHT22;26535;48.788;9.214;2023-05-07T17:03:03;16.90;99.90
40816;DHT22;26535;48.788;9.214;2023-05-07T17:05:30;16.90;99.90
40816;DHT22;26535;48.788;9.214;2023-05-07T17:07:56;17.00;99.90
40816;DHT22;26535;48.788;9.214;2023-05-07T17:10:23;17.20;99.90
40816;DHT22;26535;48.788;9.214;2023-05-07T17:12:50;17.10;99.90
40816;DHT22;26535;48.788;9.214;2023-05-07T17:15:16;17.10;99.90
40816;DHT22;26535;48.788;9.214;2023-05-07T17:17:42;17.10;99.90
40816;DHT22;26535;48.788;9.214;2023-05-07T17:20:08;17.10;99.90
40816;DHT22;26535;48.788;9.214;2023-05-07T17:22:34;17.00;99.90
40816;DHT22;26535;48.788;9.214;2023-05-07T17:25:00;16.90;99.90
40816;DHT22;26535;48.788;9.214;2023-05-07T17:27:27;16.90;99.90
40816;DHT22;26535;48.788;9.214;2023-05-07T17:29:53;16.90;99.90
40816;DHT22;26535;48.788;9.214;2023-05-07T17:32:19;16.90;99.90
40816;DHT22;26535;48.788;9.214;2023-05-07T17:34:45;17.00;99.90
40816;DHT22;26535;48.788;9.214;2023-05-07T17:37:11;16.90;99.90
40816;DHT22;26535;48.788;9.214;2023-05-07T17:39:36;16.70;99.90
40816;DHT22;26535;48.788;9.214;2023-05-07T17:42:02;16.80;99.90
40816;DHT22;26535;48.788;9.214;2023-05-07T17:44:28;16.70;99.90
40816;DHT22;26535;48.788;9.214;2023-05-07T17:46:53;16.60;99.90
40816;DHT22;26535;48.788;9.214;2023-05-07T17:49:19;16.50;99.90
40816;DHT22;26535;48.788;9.214;2023-05-07T17:51:45;16.40;99.90
40816;DHT22;26535;48.788;9.214;2023-05-07T17:54:11;16.40;99.90
40816;DHT22;26535;48.788;9.214;2023-05-07T17:56:38;16.50;99.90
40816;DHT22;26535;48.788;9.214;2023-05-07T17:59:04;16.30;99.90
40816;DHT22;26535;48.788;9.214;2023-05-07T18:01:30;16.20;99.90
40816;DHT22;26535;48.788;9.214;2023-05-07T18:03:58;16.10;99.90
40816;DHT22;26535;48.788;9.214;2023-05-07T18:06:24;15.90;99.90
40816;DHT22;26535;48.788;9.214;2023-05-07T18:08:50;15.80;99.90
40816;DHT22;26535;48.788;9.214;2023-05-07T18:11:16;15.70;99.90
40816;DHT22;26535;48.788;9.214;2023-05-07T18:13:41;15.70;99.90
40816;DHT22;26535;48.788;9.214;2023-05-07T18:16:08;15.70;99.90
40816;DHT22;26535;48.788;9.214;2023-05-07T18:18:34;15.70;99.90
40816;DHT22;26535;48.788;9.214;2023-05-07T18:21:00;15.70;99.90
40816;DHT22;26535;48.788;9.214;2023-05-07T18:23:26;15.60;99.90
40816;DHT22;26535;48.788;9.214;2023-05-07T18:25:52;15.60;99.90
40816;DHT22;26535;48.788;9.214;2023-05-07T18:28:18;15.60;99.90
40816;DHT22;26535;48.788;9.214;2023-05-07T18:30:44;15.70;99.90
40816;DHT22;26535;48.788;9.214;2023-05-07T18:33:10;15.70;99.90
40816;DHT22;26535;48.788;9.214;2023-05-07T18:35:36;15.70;99.90
40816;DHT22;26535;48.788;9.214;2023-05-07T18:38:01;15.80;99.90
40816;DHT22;26535;48.788;9.214;2023-05-07T18:40:27;15.80;99.90
40816;DHT22;26535;48.788;9.214;2023-05-07T18:42:53;15.80;99.90
40816;DHT22;26535;48.788;9.214;2023-05-07T18:45:19;15.80;99.90
40816;DHT22;26535;48.788;9.214;2023-05-07T18:47:45;15.90;99.90
40816;DHT22;26535;48.788;9.214;2023-05-07T18:50:12;15.90;99.90
40816;DHT22;26535;48.788;9.214;2023-05-07T18:52:38;15.90;99.90
40816;DHT22;26535;48.788;9.214;2023-05-07T18:55:05;15.90;99.90
40816;DHT22;26535;48.788;9.214;2023-05-07T18:57:32;15.80;99.90
40816;DHT22;26535;48.788;9.214;2023-05-07T18:59:57;15.80;99.90
40816;DHT22;26535;48.788;9.214;2023-05-07T19:02:23;15.80;99.90
40816;DHT22;26535;48.788;9.214;2023-05-07T19:04:49;15.80;99.90
40816;DHT22;26535;48.788;9.214;2023-05-07T19:07:15;15.80;99.90
40816;DHT22;26535;48.788;9.214;2023-05-07T19:09:40;15.80;99.90
40816;DHT22;26535;48.788;9.214;2023-05-07T19:12:06;15.80;99.90
40816;DHT22;26535;48.788;9.214;2023-05-07T19:14:32;15.80;99.90
40816;DHT22;26535;48.788;9.214;2023-05-07T19:16:58;15.80;99.90
40816;DHT22;26535;48.788;9.214;2023-05-07T19:19:25;15.80;99.90
40816;DHT22;26535;48.788;9.214;2023-05-07T19:21:51;15.80;99.90
40816;DHT22;26535;48.788;9.214;2023-05-07T19:24:17;15.80;99.90
40816;DHT22;26535;48.788;9.214;2023-05-07T19:26:43;15.80;99.90
40816;DHT22;26535;48.788;9.214;2023-05-07T19:29:09;15.70;99.90
40816;DHT22;26535;48.788;9.214;2023-05-07T19:31:35;15.70;99.90
40816;DHT22;26535;48.788;9.214;2023-05-07T19:34:01;15.80;99.90
40816;DHT22;26535;48.788;9.214;2023-05-07T19:36:27;15.80;99.90
40816;DHT22;26535;48.788;9.214;2023-05-07T19:38:53;15.90;99.90
40816;DHT22;26535;48.788;9.214;2023-05-07T19:41:20;15.90;99.90
40816;DHT22;26535;48.788;9.214;2023-05-07T19:43:46;15.90;99.90
40816;DHT22;26535;48.788;9.214;2023-05-07T19:46:13;15.90;99.90
40816;DHT22;26535;48.788;9.214;2023-05-07T19:48:41;16.00;99.90
40816;DHT22;26535;48.788;9.214;2023-05-07T19:51:06;16.00;99.90
40816;DHT22;26535;48.788;9.214;2023-05-07T19:53:32;15.90;99.90
40816;DHT22;26535;48.788;9.214;2023-05-07T19:56:16;15.80;99.90
40816;DHT22;26535;48.788;9.214;2023-05-07T19:58:41;15.80;99.90
40816;DHT22;26535;48.788;9.214;2023-05-07T20:01:07;15.80;99.90
40816;DHT22;26535;48.788;9.214;2023-05-07T20:03:33;15.80;99.90
40816;DHT22;26535;48.788;9.214;2023-05-07T20:05:59;15.80;99.90
40816;DHT22;26535;48.788;9.214;2023-05-07T20:08:26;15.80;99.90
40816;DHT22;26535;48.788;9.214;2023-05-07T20:10:52;15.80;99.90
40816;DHT22;26535;48.788;9.214;2023-05-07T20:13:18;15.70;99.90
40816;DHT22;26535;48.788;9.214;2023-05-07T20:15:44;15.70;99.90
40816;DHT22;26535;48.788;9.214;2023-05-07T20:18:10;15.70;99.90
40816;DHT22;26535;48.788;9.214;2023-05-07T20:20:39;15.70;99.90
40816;DHT22;26535;48.788;9.214;2023-05-07T20:23:05;15.70;99.90
40816;DHT22;26535;48.788;9.214;2023-05-07T20:25:30;15.70;99.90
40816;DHT22;26535;48.788;9.214;2023-05-07T20:27:56;15.70;99.90
40816;DHT22;26535;48.788;9.214;2023-05-07T20:30:22;15.70;99.90
40816;DHT22;26535;48.788;9.214;2023-05-07T20:32:49;15.70;99.90
40816;DHT22;26535;48.788;9.214;2023-05-07T20:35:15;15.70;99.90
40816;DHT22;26535;48.788;9.214;2023-05-07T20:37:41;15.70;99.90
40816;DHT22;26535;48.788;9.214;2023-05-07T20:40:07;15.70;99.90
40816;DHT22;26535;48.788;9.214;2023-05-07T20:42:33;15.70;99.90
40816;DHT22;26535;48.788;9.214;2023-05-07T20:44:59;15.80;99.90
40816;DHT22;26535;48.788;9.214;2023-05-07T20:47:25;15.80;99.90
40816;DHT22;26535;48.788;9.214;2023-05-07T20:49:53;15.70;99.90